Time;durP1;ratioP1;P1;durP2;ratioP2;P2;SDS_P1;SDS_P2;PMS_P1;PMS_P2;Temp;Humidity;BMP_temperature;BMP_pressure;BME280_temperature;BME280_humidity;BME280_pressure;Samples;Min_cycle;Max_cycle;Signal;HPM_P1;HPM_P2
2022/06/24 00:00:14;;;;;;;15.23;11.68;;;22.90;99.90;;;;;;4995258;28;20058;-70
2022/06/24 00:02:40;;;;;;;15.88;12.38;;;22.90;99.90;;;;;;4995857;28;20492;-70
2022/06/24 00:05:11;;;;;;;14.10;12.63;;;22.90;99.90;;;;;;4995993;28;20408;-70
2022/06/24 00:07:50;;;;;;;26.02;16.95;;;22.90;99.90;;;;;;5001834;28;20095;-70
2022/06/24 00:10:18;;;;;;;17.10;14.07;;;22.80;99.90;;;;;;5000042;28;20042;-70
2022/06/24 00:12:45;;;;;;;15.68;12.85;;;22.80;99.90;;;;;;4995869;28;20387;-70
2022/06/24 00:15:11;;;;;;;15.95;12.52;;;22.80;99.90;;;;;;4995846;28;20053;-70
2022/06/24 00:17:36;;;;;;;23.25;13.63;;;22.70;99.90;;;;;;4995815;28;20038;-70
2022/06/24 00:20:06;;;;;;;17.25;12.93;;;22.70;99.90;;;;;;4995868;28;20046;-70
2022/06/24 00:22:41;;;;;;;17.52;13.18;;;22.70;99.90;;;;;;4995898;28;20135;-69
2022/06/24 00:25:24;;;;;;;17.23;12.23;;;22.70;99.90;;;;;;5000118;28;20054;-70
2022/06/24 00:28:03;;;;;;;18.05;13.82;;;22.70;99.90;;;;;;5015165;28;20033;-70
2022/06/24 00:30:34;;;;;;;15.50;13.57;;;22.60;99.90;;;;;;5006718;28;20046;-70
2022/06/24 00:33:14;;;;;;;21.55;14.65;;;22.60;99.90;;;;;;4995763;28;20129;-70
2022/06/24 00:35:50;;;;;;;21.85;14.63;;;22.60;99.90;;;;;;4995125;28;20523;-70
2022/06/24 00:38:25;;;;;;;19.73;14.77;;;22.50;99.90;;;;;;4995606;28;20046;-70
2022/06/24 00:40:56;;;;;;;22.42;15.20;;;22.50;99.90;;;;;;4995651;28;20116;-70
2022/06/24 00:43:31;;;;;;;20.45;14.90;;;22.50;99.90;;;;;;4995521;28;20061;-70
2022/06/24 00:46:15;;;;;;;20.67;14.63;;;22.40;99.90;;;;;;4995305;28;20383;-70
2022/06/24 00:48:47;;;;;;;19.03;15.43;;;22.40;99.90;;;;;;4994782;28;20188;-69
2022/06/24 00:51:13;;;;;;;18.33;16.38;;;22.40;99.90;;;;;;4995182;28;20488;-69
2022/06/24 00:53:41;;;;;;;19.27;15.80;;;22.30;99.90;;;;;;4995407;28;20046;-70
2022/06/24 00:56:11;;;;;;;21.65;17.63;;;22.30;99.90;;;;;;4995228;28;20038;-70
2022/06/24 00:58:37;;;;;;;20.85;17.50;;;22.20;99.90;;;;;;4995322;28;20038;-69
2022/06/24 01:01:03;;;;;;;23.73;17.35;;;22.20;99.90;;;;;;4995611;28;20074;-69
2022/06/24 01:03:40;;;;;;;22.02;17.98;;;22.20;99.90;;;;;;4995590;28;20101;-70
2022/06/24 01:06:07;;;;;;;24.13;19.80;;;22.10;99.90;;;;;;4975901;28;20089;-70
2022/06/24 01:08:33;;;;;;;24.52;19.33;;;22.10;99.90;;;;;;4975859;28;20050;-70
2022/06/24 01:10:59;;;;;;;21.92;18.05;;;22.00;99.90;;;;;;4975541;28;20113;-69
2022/06/24 01:13:25;;;;;;;20.73;18.25;;;21.90;99.90;;;;;;4976647;28;20531;-69
2022/06/24 01:15:51;;;;;;;20.63;18.38;;;21.90;99.90;;;;;;4997650;28;20464;-70
2022/06/24 01:18:16;;;;;;;20.88;17.10;;;21.80;99.90;;;;;;5014960;28;20050;-69
2022/06/24 01:20:42;;;;;;;22.90;17.67;;;21.80;99.90;;;;;;5012646;28;20046;-70
2022/06/24 01:23:08;;;;;;;20.58;17.67;;;21.80;99.90;;;;;;4995213;28;20137;-70
2022/06/24 01:25:33;;;;;;;23.95;18.77;;;21.80;99.90;;;;;;4995309;28;20126;-70
2022/06/24 01:27:59;;;;;;;18.67;16.77;;;21.60;99.90;;;;;;4995232;28;20468;-70
2022/06/24 01:30:26;;;;;;;23.05;18.55;;;21.60;99.90;;;;;;4994930;28;20464;-69
2022/06/24 01:32:52;;;;;;;18.25;16.35;;;21.60;99.90;;;;;;4995397;28;20133;-69
2022/06/24 01:35:18;;;;;;;21.88;18.27;;;21.50;99.90;;;;;;4995291;28;20050;-69
2022/06/24 01:37:43;;;;;;;22.35;17.85;;;21.50;99.90;;;;;;4994411;28;20066;-70
2022/06/24 01:40:10;;;;;;;25.02;19.48;;;21.40;99.90;;;;;;4997527;28;20445;-69
2022/06/24 01:42:36;;;;;;;21.25;17.25;;;21.40;99.90;;;;;;4999079;28;20042;-69
2022/06/24 01:45:02;;;;;;;24.52;19.13;;;21.40;99.90;;;;;;4998929;28;20412;-70
2022/06/24 01:47:27;;;;;;;23.42;18.30;;;21.40;99.90;;;;;;4998688;28;20082;-69
2022/06/24 01:49:53;;;;;;;23.90;19.10;;;21.40;99.90;;;;;;4998971;28;20050;-69
2022/06/24 01:52:18;;;;;;;25.65;19.58;;;21.40;99.90;;;;;;4998505;28;20070;-69
2022/06/24 01:54:44;;;;;;;21.60;19.42;;;21.40;99.90;;;;;;4997996;28;20058;-69
2022/06/24 01:57:09;;;;;;;23.33;20.20;;;21.40;99.90;;;;;;4998816;28;20452;-70
2022/06/24 01:59:35;;;;;;;24.65;21.45;;;21.40;99.90;;;;;;4998634;28;20046;-69
2022/06/24 02:02:01;;;;;;;25.73;21.58;;;21.30;99.90;;;;;;4998534;28;20081;-69
2022/06/24 02:04:26;;;;;;;25.83;20.10;;;21.20;99.90;;;;;;4998570;28;20050;-69
2022/06/24 02:06:52;;;;;;;21.40;17.50;;;21.20;99.90;;;;;;4998205;28;20049;-69
2022/06/24 02:09:17;;;;;;;26.13;17.25;;;21.20;99.90;;;;;;4998321;28;20077;-69
2022/06/24 02:14:29;;;;;;;16.13;14.45;;;21.20;99.90;;;;;;4998265;28;20050;-70
2022/06/24 02:16:56;;;;;;;21.70;17.15;;;21.20;99.90;;;;;;4998163;28;20038;-69
2022/06/24 02:19:22;;;;;;;20.00;17.90;;;21.20;99.90;;;;;;4998247;28;20440;-69
2022/06/24 02:21:48;;;;;;;26.10;18.70;;;21.10;99.90;;;;;;4997850;28;20093;-70
2022/06/24 02:24:13;;;;;;;20.70;18.40;;;21.10;99.90;;;;;;4998291;28;20050;-69
2022/06/24 02:26:40;;;;;;;24.13;19.33;;;21.00;99.90;;;;;;4998045;28;20476;-69
2022/06/24 02:29:06;;;;;;;20.85;15.85;;;21.10;99.90;;;;;;4997571;28;20046;-69
2022/06/24 02:31:32;;;;;;;18.25;15.38;;;21.10;99.90;;;;;;4998011;28;20092;-70
2022/06/24 02:33:58;;;;;;;22.60;16.25;;;21.10;99.90;;;;;;4998083;28;20445;-69
2022/06/24 02:36:24;;;;;;;22.83;15.88;;;21.10;99.90;;;;;;4997715;28;20053;-69
2022/06/24 02:38:50;;;;;;;22.15;15.40;;;21.10;99.90;;;;;;4998035;28;20423;-69
2022/06/24 02:41:15;;;;;;;26.48;18.48;;;21.10;99.90;;;;;;4997927;28;20068;-69
2022/06/24 02:43:42;;;;;;;25.70;20.27;;;21.10;99.90;;;;;;4997790;28;20039;-69
2022/06/24 02:46:10;;;;;;;27.60;20.52;;;21.00;99.90;;;;;;4997005;28;20060;-69
2022/06/24 02:48:38;;;;;;;22.05;19.75;;;21.00;99.90;;;;;;4997955;28;20077;-70
2022/06/24 02:51:06;;;;;;;25.52;21.42;;;21.00;99.90;;;;;;4997454;28;20039;-69
2022/06/24 02:53:33;;;;;;;23.95;21.30;;;20.90;99.90;;;;;;4997225;28;20133;-69
2022/06/24 02:56:02;;;;;;;23.70;19.48;;;20.70;99.90;;;;;;4997851;28;20043;-69
2022/06/24 02:58:28;;;;;;;21.45;19.23;;;20.70;99.90;;;;;;4997502;28;20066;-69
2022/06/24 03:00:54;;;;;;;24.35;20.25;;;20.70;99.90;;;;;;4997412;28;20073;-69
2022/06/24 03:03:21;;;;;;;21.85;19.45;;;20.70;99.90;;;;;;4996669;28;20453;-70
2022/06/24 03:05:47;;;;;;;23.90;17.88;;;20.70;99.90;;;;;;4997302;28;20089;-69
2022/06/24 03:08:16;;;;;;;18.48;16.63;;;20.70;99.90;;;;;;4997284;28;20053;-69
2022/06/24 03:10:43;;;;;;;18.15;15.95;;;20.70;99.90;;;;;;4997490;28;20057;-69
2022/06/24 03:13:09;;;;;;;22.00;17.85;;;20.70;99.90;;;;;;4997519;28;20109;-69
2022/06/24 03:15:35;;;;;;;20.63;18.48;;;20.70;99.90;;;;;;4997102;28;20056;-69
2022/06/24 03:18:01;;;;;;;24.58;18.50;;;20.70;99.90;;;;;;4996945;28;20373;-70
2022/06/24 03:20:28;;;;;;;20.88;16.75;;;20.60;99.90;;;;;;4996037;28;20042;-69
2022/06/24 03:22:53;;;;;;;21.25;16.77;;;20.70;99.90;;;;;;4996976;28;20053;-69
2022/06/24 03:25:19;;;;;;;18.63;15.07;;;20.60;99.90;;;;;;4996895;28;20121;-70
2022/06/24 03:27:45;;;;;;;18.38;15.55;;;20.70;99.90;;;;;;4996870;28;20457;-69
2022/06/24 03:30:11;;;;;;;22.23;17.45;;;20.80;99.90;;;;;;4996609;28;20464;-70
2022/06/24 03:32:37;;;;;;;23.70;17.30;;;20.80;99.90;;;;;;4996615;28;20046;-70
2022/06/24 03:35:05;;;;;;;22.30;17.92;;;20.70;99.90;;;;;;4996457;28;20511;-69
2022/06/24 03:37:31;;;;;;;22.20;19.50;;;20.60;99.90;;;;;;4996080;28;20346;-69
2022/06/24 03:39:57;;;;;;;24.27;19.20;;;20.40;99.90;;;;;;4996782;28;20100;-70
2022/06/24 03:42:23;;;;;;;26.50;18.83;;;20.40;99.90;;;;;;4996795;28;20053;-70
2022/06/24 03:44:48;;;;;;;20.83;18.40;;;20.40;99.90;;;;;;4997004;28;20050;-70
2022/06/24 03:47:14;;;;;;;23.55;19.00;;;20.50;99.90;;;;;;4996481;28;20049;-69
2022/06/24 03:49:40;;;;;;;24.70;19.73;;;20.50;99.90;;;;;;4996597;28;20050;-69
2022/06/24 03:52:06;;;;;;;26.40;20.73;;;20.50;99.90;;;;;;4995835;28;20576;-69
2022/06/24 03:54:32;;;;;;;27.83;21.23;;;20.50;99.90;;;;;;4996047;28;20069;-69
2022/06/24 03:56:57;;;;;;;28.60;21.33;;;20.50;99.90;;;;;;4996228;28;20050;-70
2022/06/24 03:59:23;;;;;;;27.15;22.60;;;20.50;99.90;;;;;;4996270;28;20046;-70
2022/06/24 04:01:49;;;;;;;28.48;23.67;;;20.60;99.90;;;;;;4995478;28;20052;-70
2022/06/24 04:04:15;;;;;;;28.10;23.27;;;20.50;99.90;;;;;;4996176;28;20056;-69
2022/06/24 04:06:40;;;;;;;26.83;23.83;;;20.50;99.90;;;;;;4996623;28;20417;-70
2022/06/24 04:09:06;;;;;;;33.22;25.27;;;20.50;99.90;;;;;;4995825;28;20042;-69
2022/06/24 04:11:31;;;;;;;35.40;25.42;;;20.60;99.90;;;;;;4995370;28;20046;-69
2022/06/24 04:13:59;;;;;;;32.17;26.00;;;20.60;99.90;;;;;;4996191;28;20042;-70
2022/06/24 04:16:25;;;;;;;40.97;26.90;;;20.70;99.90;;;;;;4995809;28;20058;-69
2022/06/24 04:18:51;;;;;;;35.47;23.23;;;20.60;99.90;;;;;;4995989;28;20050;-69
2022/06/24 04:21:17;;;;;;;33.40;19.38;;;20.50;99.90;;;;;;4996046;28;20052;-69
2022/06/24 04:23:45;;;;;;;34.63;15.77;;;20.40;99.90;;;;;;4996107;28;20198;-69
2022/06/24 04:26:11;;;;;;;32.45;12.90;;;20.30;99.90;;;;;;4978683;28;20054;-69
2022/06/24 04:28:37;;;;;;;31.80;13.32;;;20.20;99.90;;;;;;4995173;28;20058;-69
2022/06/24 04:31:03;;;;;;;39.67;12.13;;;20.10;99.90;;;;;;4978449;28;20050;-69
2022/06/24 04:33:28;;;;;;;27.60;10.30;;;19.90;99.90;;;;;;4995933;28;20452;-69
2022/06/24 04:35:54;;;;;;;22.90;9.65;;;19.80;99.90;;;;;;4995789;28;20049;-69
2022/06/24 04:38:20;;;;;;;17.73;7.53;;;19.70;99.90;;;;;;4995307;28;20109;-69
2022/06/24 04:40:46;;;;;;;12.88;7.25;;;19.50;99.90;;;;;;4995762;28;20056;-69
2022/06/24 04:43:12;;;;;;;12.45;7.00;;;19.50;99.90;;;;;;4995738;28;20043;-69
2022/06/24 04:45:38;;;;;;;12.27;6.47;;;19.40;99.90;;;;;;4994716;28;20057;-70
2022/06/24 04:48:05;;;;;;;14.55;6.75;;;19.20;99.90;;;;;;4995156;28;20476;-69
2022/06/24 04:50:31;;;;;;;12.90;7.18;;;19.30;99.90;;;;;;4995245;28;20350;-69
2022/06/24 04:52:56;;;;;;;12.00;7.15;;;19.30;99.90;;;;;;4995400;28;20430;-70
2022/06/24 04:55:22;;;;;;;15.20;7.13;;;19.30;99.90;;;;;;4994779;28;20046;-69
2022/06/24 04:57:48;;;;;;;16.40;6.68;;;19.20;99.90;;;;;;4994833;28;20115;-69
2022/06/24 05:00:15;;;;;;;16.17;8.07;;;19.20;99.90;;;;;;4994703;28;20128;-69
2022/06/24 05:02:42;;;;;;;11.60;6.80;;;19.30;99.90;;;;;;4993907;28;20046;-69
2022/06/24 05:05:12;;;;;;;17.42;8.05;;;19.20;99.90;;;;;;4994796;28;20042;-69
2022/06/24 05:07:38;;;;;;;12.20;7.30;;;19.30;99.90;;;;;;4994677;28;20129;-69
2022/06/24 05:10:05;;;;;;;16.65;7.60;;;19.30;99.90;;;;;;4994781;28;20034;-69
2022/06/24 05:12:31;;;;;;;15.45;7.45;;;19.20;99.90;;;;;;4994463;28;20143;-69
2022/06/24 05:14:57;;;;;;;15.98;7.70;;;19.30;99.90;;;;;;4996619;28;20061;-69
2022/06/24 05:17:23;;;;;;;15.50;7.20;;;19.20;99.90;;;;;;4997826;28;20042;-69
2022/06/24 05:19:50;;;;;;;15.60;7.75;;;19.10;99.90;;;;;;4997286;28;20116;-69
2022/06/24 05:22:16;;;;;;;18.67;8.20;;;19.10;99.90;;;;;;4998140;28;20039;-69
2022/06/24 05:24:41;;;;;;;18.55;8.02;;;19.20;99.90;;;;;;4998199;28;20445;-68
2022/06/24 05:27:07;;;;;;;12.68;8.32;;;19.00;99.90;;;;;;4997669;28;20453;-69
2022/06/24 05:29:32;;;;;;;18.40;8.55;;;19.00;99.90;;;;;;4997707;28;20081;-68
2022/06/24 05:31:58;;;;;;;25.10;10.25;;;18.80;99.90;;;;;;4997951;28;20471;-73
2022/06/24 05:34:24;;;;;;;53.15;12.88;;;18.90;99.90;;;;;;4998069;28;20046;-73
2022/06/24 05:36:49;;;;;;;22.02;12.13;;;18.60;99.90;;;;;;4997158;28;20054;-70
2022/06/24 05:39:15;;;;;;;24.58;12.63;;;18.70;99.90;;;;;;4997663;28;20047;-71
2022/06/24 05:41:41;;;;;;;22.23;10.82;;;18.50;99.90;;;;;;4997695;28;20046;-71
2022/06/24 05:44:08;;;;;;;24.65;10.75;;;18.50;99.90;;;;;;4997701;28;20476;-72
2022/06/24 05:46:34;;;;;;;26.67;10.85;;;18.80;99.90;;;;;;4997466;28;20050;-70
2022/06/24 05:48:59;;;;;;;28.55;12.15;;;18.80;99.90;;;;;;4997714;28;20060;-70
2022/06/24 05:51:25;;;;;;;25.17;11.98;;;18.80;99.90;;;;;;4997332;28;20090;-69
2022/06/24 05:56:36;;;;;;;21.05;8.52;;;18.90;99.90;;;;;;4998540;28;20476;-69
2022/06/24 05:59:02;;;;;;;15.45;8.88;;;18.90;99.90;;;;;;4998521;28;20054;-69
2022/06/24 06:01:28;;;;;;;22.92;9.43;;;18.50;99.90;;;;;;4998613;28;20393;-70
2022/06/24 06:03:54;;;;;;;21.30;9.25;;;18.70;99.90;;;;;;4998395;28;20238;-69
2022/06/24 06:06:19;;;;;;;30.98;10.95;;;18.30;99.90;;;;;;4998267;28;20038;-69
2022/06/24 06:08:45;;;;;;;32.63;11.93;;;18.50;99.90;;;;;;4998289;28;20081;-67
2022/06/24 06:11:14;;;;;;;28.90;10.55;;;18.30;99.90;;;;;;4997456;28;20042;-68
2022/06/24 06:13:41;;;;;;;25.27;12.02;;;18.30;99.90;;;;;;4998211;28;20053;-69
2022/06/24 06:16:07;;;;;;;24.92;11.55;;;18.30;99.90;;;;;;4998218;28;20051;-68
2022/06/24 06:18:33;;;;;;;21.23;11.80;;;18.40;99.90;;;;;;4998260;28;20445;-68
2022/06/24 06:21:00;;;;;;;21.48;13.38;;;18.50;99.90;;;;;;4998050;28;20042;-69
2022/06/24 06:23:28;;;;;;;19.48;14.57;;;18.40;99.90;;;;;;4998136;28;20046;-67
2022/06/24 06:25:57;;;;;;;29.67;17.02;;;18.60;99.90;;;;;;4997343;28;20042;-68
2022/06/24 06:28:23;;;;;;;26.02;17.05;;;18.50;99.90;;;;;;4997102;28;20038;-67
2022/06/24 06:30:48;;;;;;;28.10;16.88;;;18.60;99.90;;;;;;4997802;28;20042;-67
2022/06/24 06:33:14;;;;;;;26.85;17.13;;;18.40;99.90;;;;;;4998030;28;20400;-67
2022/06/24 06:35:40;;;;;;;31.63;18.30;;;18.60;99.90;;;;;;4980666;28;20053;-68
2022/06/24 06:38:05;;;;;;;28.05;18.35;;;18.40;99.90;;;;;;4997792;28;20042;-67
2022/06/24 06:40:34;;;;;;;28.50;18.45;;;18.40;99.90;;;;;;4996997;28;20449;-68
2022/06/24 06:43:00;;;;;;;28.42;18.92;;;18.50;99.90;;;;;;4997380;28;20457;-68
2022/06/24 06:45:27;;;;;;;28.00;17.67;;;18.50;99.90;;;;;;4996957;28;20116;-68
2022/06/24 06:47:52;;;;;;;22.27;18.05;;;18.50;99.90;;;;;;4997699;28;20045;-68
2022/06/24 06:50:18;;;;;;;30.67;19.90;;;18.40;99.90;;;;;;4997531;28;20041;-68
2022/06/24 06:52:44;;;;;;;25.73;18.15;;;18.50;99.90;;;;;;4997349;28;20157;-69
2022/06/24 06:55:09;;;;;;;33.95;20.83;;;18.50;99.90;;;;;;4979971;28;20483;-68
2022/06/24 06:57:35;;;;;;;28.80;21.38;;;18.70;99.90;;;;;;4997318;28;20044;-69
2022/06/24 07:00:02;;;;;;;24.52;19.90;;;18.80;99.90;;;;;;4997358;28;20388;-68
2022/06/24 07:02:27;;;;;;;22.50;18.23;;;19.00;99.90;;;;;;4996660;28;20100;-68
2022/06/24 07:04:53;;;;;;;27.58;19.27;;;18.80;99.90;;;;;;4997310;28;20050;-72
2022/06/24 07:07:19;;;;;;;25.23;19.08;;;18.70;99.90;;;;;;4997505;28;20038;-70
2022/06/24 07:09:44;;;;;;;23.40;17.83;;;19.00;99.90;;;;;;4996943;28;20042;-71
2022/06/24 07:12:10;;;;;;;18.70;15.88;;;18.80;99.90;;;;;;4996883;28;20046;-70
2022/06/24 07:14:39;;;;;;;23.05;18.13;;;18.90;99.90;;;;;;4996922;28;20046;-72
2022/06/24 07:17:04;;;;;;;25.58;18.42;;;19.10;99.90;;;;;;4997185;28;20133;-70
2022/06/24 07:19:30;;;;;;;26.02;19.13;;;18.90;99.90;;;;;;4996138;28;20507;-72
2022/06/24 07:21:55;;;;;;;20.65;18.48;;;19.00;99.90;;;;;;4997250;28;20380;-73
2022/06/24 07:24:21;;;;;;;20.90;17.35;;;19.10;99.90;;;;;;4997193;28;20042;-72
2022/06/24 07:26:46;;;;;;;23.25;18.67;;;19.00;99.90;;;;;;4996556;28;20097;-72
2022/06/24 07:29:12;;;;;;;20.67;17.42;;;19.10;99.90;;;;;;4996980;28;20042;-72
2022/06/24 07:31:37;;;;;;;23.33;18.83;;;19.20;99.90;;;;;;4996971;28;20101;-72
2022/06/24 07:34:04;;;;;;;23.33;17.42;;;19.10;99.90;;;;;;4997191;28;20046;-72
2022/06/24 07:36:30;;;;;;;22.48;19.33;;;18.80;99.90;;;;;;4995643;28;20338;-72
2022/06/24 07:38:56;;;;;;;26.40;18.80;;;18.90;99.90;;;;;;4996419;28;20057;-68
2022/06/24 07:41:21;;;;;;;25.42;16.58;;;19.10;99.90;;;;;;4996549;28;20461;-68
2022/06/24 07:43:47;;;;;;;25.35;19.00;;;19.20;99.90;;;;;;4996682;28;20038;-67
2022/06/24 07:46:13;;;;;;;28.48;21.60;;;19.10;99.90;;;;;;4996458;28;20456;-70
2022/06/24 07:48:38;;;;;;;21.73;17.52;;;19.20;99.90;;;;;;4996492;28;20078;-69
2022/06/24 07:51:15;;;;;;;25.67;15.70;;;19.20;99.90;;;;;;4996448;28;20050;-69
2022/06/24 07:53:42;;;;;;;24.67;16.85;;;19.20;99.90;;;;;;4995367;28;20054;-68
2022/06/24 07:58:54;;;;;;;19.73;15.77;;;19.30;99.90;;;;;;4996448;28;20054;-71
2022/06/24 08:01:19;;;;;;;19.65;14.77;;;19.50;99.90;;;;;;4988021;28;20047;-69
2022/06/24 08:03:45;;;;;;;17.25;15.45;;;19.60;99.90;;;;;;4976463;28;20057;-67
2022/06/24 08:06:11;;;;;;;23.40;17.25;;;19.40;99.90;;;;;;4976620;28;20050;-68
2022/06/24 08:08:37;;;;;;;23.48;17.45;;;19.60;99.90;;;;;;4977071;28;20096;-70
2022/06/24 08:11:04;;;;;;;17.35;14.80;;;19.70;99.90;;;;;;4996016;28;20050;-68
2022/06/24 08:13:30;;;;;;;21.98;16.65;;;19.50;99.90;;;;;;4995469;28;20126;-68
2022/06/24 08:15:56;;;;;;;22.00;16.42;;;19.70;99.90;;;;;;4995731;28;20121;-68
2022/06/24 08:18:22;;;;;;;21.92;14.90;;;19.70;99.90;;;;;;4995670;28;20127;-68
2022/06/24 08:20:47;;;;;;;19.73;15.05;;;19.80;99.90;;;;;;4995710;28;20141;-68
2022/06/24 08:23:13;;;;;;;18.27;14.55;;;19.90;99.90;;;;;;4995645;28;20129;-67
2022/06/24 08:25:39;;;;;;;22.33;17.17;;;19.70;99.90;;;;;;4994964;28;20456;-67
2022/06/24 08:28:04;;;;;;;19.88;15.10;;;19.60;99.90;;;;;;4995566;28;20157;-65
2022/06/24 08:30:30;;;;;;;19.88;15.40;;;19.70;99.90;;;;;;4995720;28;20053;-67
2022/06/24 08:32:56;;;;;;;20.58;15.00;;;19.60;99.90;;;;;;4995777;28;20038;-66
2022/06/24 08:35:21;;;;;;;18.67;14.38;;;19.50;99.90;;;;;;4995777;28;20035;-67
2022/06/24 08:37:47;;;;;;;16.98;11.63;;;19.30;99.90;;;;;;4995762;28;20050;-67
2022/06/24 08:40:13;;;;;;;24.77;14.73;;;19.10;99.90;;;;;;4995725;28;20038;-67
2022/06/24 08:42:39;;;;;;;17.15;11.85;;;19.00;99.90;;;;;;4994256;28;20042;-67
2022/06/24 08:45:05;;;;;;;15.55;12.20;;;18.90;99.90;;;;;;4983701;28;20082;-67
2022/06/24 08:47:31;;;;;;;19.92;14.20;;;18.90;99.90;;;;;;4975690;28;20051;-67
2022/06/24 08:49:57;;;;;;;24.50;15.07;;;18.90;99.90;;;;;;4959301;28;20061;-68
2022/06/24 08:52:22;;;;;;;36.67;16.17;;;18.90;99.90;;;;;;4995474;28;20057;-67
2022/06/24 08:54:49;;;;;;;40.35;18.42;;;18.50;99.90;;;;;;4994964;28;20050;-66
2022/06/24 08:57:16;;;;;;;29.00;14.25;;;18.60;99.90;;;;;;4995160;28;20381;-67
2022/06/24 08:59:45;;;;;;;18.70;13.35;;;18.60;99.90;;;;;;4994574;28;20038;-68
2022/06/24 09:02:14;;;;;;;20.95;13.40;;;18.20;99.90;;;;;;4995230;28;20046;-67
2022/06/24 09:04:43;;;;;;;24.20;16.17;;;18.10;99.90;;;;;;4995281;28;20108;-67
2022/06/24 09:07:17;;;;;;;24.75;16.52;;;18.20;99.90;;;;;;4995112;28;20046;-65
2022/06/24 09:09:56;;;;;;;21.87;14.17;;;18.40;99.90;;;;;;4994853;28;20527;-67
2022/06/24 09:12:22;;;;;;;18.05;9.32;;;18.10;99.90;;;;;;4995129;28;20046;-67
2022/06/24 09:14:48;;;;;;;13.25;9.10;;;18.10;99.90;;;;;;4995395;28;20358;-68
2022/06/24 09:17:14;;;;;;;19.52;12.73;;;17.90;99.90;;;;;;4994632;28;20472;-67
2022/06/24 09:19:40;;;;;;;16.05;8.88;;;17.90;99.90;;;;;;4995049;28;20054;-67
2022/06/24 09:22:06;;;;;;;13.52;8.70;;;17.90;99.90;;;;;;4994759;28;20057;-67
2022/06/24 09:24:45;;;;;;;10.52;8.38;;;18.00;99.90;;;;;;4995061;28;20111;-67
2022/06/24 09:27:11;;;;;;;12.38;8.35;;;17.90;99.90;;;;;;4994980;28;20057;-67
2022/06/24 09:29:37;;;;;;;14.13;8.23;;;18.00;99.90;;;;;;4994911;28;20048;-66
2022/06/24 09:32:08;;;;;;;11.93;8.77;;;17.80;99.90;;;;;;4978078;28;20065;-67
2022/06/24 09:34:33;;;;;;;9.55;6.40;;;17.80;99.90;;;;;;4998070;28;20105;-66
2022/06/24 09:36:59;;;;;;;9.63;5.63;;;18.00;99.90;;;;;;5004123;28;20502;-66
2022/06/24 09:39:24;;;;;;;11.00;6.78;;;17.60;99.90;;;;;;5005025;28;20044;-66
2022/06/24 09:41:54;;;;;;;9.48;7.05;;;17.80;99.90;;;;;;5003176;28;20078;-69
2022/06/24 09:44:21;;;;;;;13.13;6.50;;;17.50;99.90;;;;;;5001557;28;20054;-65
2022/06/24 09:46:48;;;;;;;7.43;5.70;;;17.90;99.90;;;;;;5012278;28;20054;-66
2022/06/24 09:49:17;;;;;;;13.10;6.85;;;17.70;99.90;;;;;;5014546;28;20049;-66
2022/06/24 09:51:46;;;;;;;11.07;7.32;;;17.80;99.90;;;;;;4981672;28;20054;-66
2022/06/24 09:54:15;;;;;;;8.52;6.78;;;17.70;99.90;;;;;;4977701;28;20353;-66
2022/06/24 09:56:44;;;;;;;11.38;8.27;;;18.10;99.90;;;;;;4994851;28;20086;-67
2022/06/24 10:01:59;;;;;;;13.70;10.00;;;18.10;99.90;;;;;;4998475;28;20050;-66
2022/06/24 10:04:26;;;;;;;20.77;12.82;;;18.10;99.90;;;;;;4998302;28;20465;-66
2022/06/24 10:06:56;;;;;;;13.60;10.80;;;18.00;99.90;;;;;;4998271;28;20093;-66
2022/06/24 10:09:31;;;;;;;13.45;9.90;;;18.20;99.90;;;;;;4997364;28;20446;-66
2022/06/24 10:11:58;;;;;;;14.38;10.32;;;18.30;99.90;;;;;;4997822;28;20453;-66
2022/06/24 10:14:29;;;;;;;11.98;10.73;;;18.50;99.90;;;;;;4998197;28;20038;-67
2022/06/24 10:16:56;;;;;;;15.95;10.77;;;18.30;99.90;;;;;;4998099;28;20046;-66
2022/06/24 10:19:25;;;;;;;15.75;11.27;;;18.50;99.90;;;;;;4998262;28;20078;-66
2022/06/24 10:21:51;;;;;;;15.38;10.77;;;18.20;99.90;;;;;;4998084;28;20042;-66
2022/06/24 10:24:17;;;;;;;16.00;12.10;;;18.60;99.90;;;;;;4997651;28;20540;-67
2022/06/24 10:26:46;;;;;;;20.33;15.65;;;18.50;99.90;;;;;;4997368;28;20053;-66
2022/06/24 10:29:14;;;;;;;16.38;13.23;;;18.30;99.90;;;;;;4997752;28;20360;-67
2022/06/24 10:31:43;;;;;;;19.30;14.80;;;18.40;99.90;;;;;;4997844;28;20080;-66
2022/06/24 10:34:26;;;;;;;20.38;14.68;;;18.20;99.90;;;;;;4980965;28;20109;-66
2022/06/24 10:37:15;;;;;;;22.05;17.42;;;18.50;99.90;;;;;;4997814;28;20038;-68
2022/06/24 10:39:48;;;;;;;23.08;18.17;;;18.60;99.90;;;;;;4990027;28;20073;-67
2022/06/24 10:42:14;;;;;;;23.48;19.35;;;18.50;99.90;;;;;;4997346;28;20042;-68
2022/06/24 10:44:57;;;;;;;23.45;19.45;;;18.60;99.90;;;;;;4995128;28;20043;-67
2022/06/24 10:47:36;;;;;;;28.60;22.48;;;18.60;99.90;;;;;;4997113;28;20366;-67
2022/06/24 10:50:02;;;;;;;26.15;23.30;;;18.50;99.90;;;;;;4997595;28;20358;-66
2022/06/24 10:53:00;;;;;;;27.95;23.00;;;18.70;99.90;;;;;;4997469;28;20065;-68
2022/06/24 10:58:10;;;;;;;36.05;26.33;;;18.70;99.90;;;;;;4997144;28;20058;-68
2022/06/24 11:00:39;;;;;;;35.45;27.13;;;18.90;99.90;;;;;;4996538;28;20042;-67
2022/06/24 11:03:05;;;;;;;35.75;25.52;;;18.80;99.90;;;;;;4997498;28;20061;-66
2022/06/24 11:05:36;;;;;;;36.20;27.88;;;19.00;99.90;;;;;;4997662;28;20121;-67
2022/06/24 11:08:03;;;;;;;32.88;26.23;;;19.00;99.90;;;;;;4995599;28;20057;-69
2022/06/24 11:10:31;;;;;;;32.67;27.23;;;19.10;99.90;;;;;;4996522;28;20559;-67
2022/06/24 11:12:58;;;;;;;35.05;25.85;;;19.10;99.90;;;;;;4996043;28;20442;-66
2022/06/24 11:15:45;;;;;;;33.40;26.13;;;19.10;99.90;;;;;;4997139;28;20104;-67
2022/06/24 11:18:14;;;;;;;33.75;24.85;;;19.10;99.90;;;;;;4996725;28;20445;-67
2022/06/24 11:20:43;;;;;;;32.13;24.25;;;19.10;99.90;;;;;;4997127;28;20038;-67
2022/06/24 11:23:12;;;;;;;30.95;24.02;;;18.90;99.90;;;;;;5007137;28;20099;-66
2022/06/24 11:26:05;;;;;;;31.08;23.15;;;19.00;99.90;;;;;;5016456;28;20092;-68
2022/06/24 11:28:34;;;;;;;33.03;25.00;;;19.20;99.90;;;;;;5017128;28;20041;-68
2022/06/24 11:31:17;;;;;;;27.40;22.73;;;19.30;99.90;;;;;;5016448;28;20045;-67
2022/06/24 11:33:45;;;;;;;29.17;23.52;;;19.10;99.90;;;;;;5016315;28;20103;-67
2022/06/24 11:36:11;;;;;;;25.77;21.13;;;19.00;99.90;;;;;;5016215;28;20037;-66
2022/06/24 11:38:55;;;;;;;29.20;21.92;;;19.30;99.90;;;;;;5001224;28;20057;-68
2022/06/24 11:41:25;;;;;;;29.20;23.30;;;19.40;99.90;;;;;;4979738;28;20060;-66
2022/06/24 11:43:52;;;;;;;29.95;25.73;;;19.40;99.90;;;;;;4995267;28;20428;-68
2022/06/24 11:46:18;;;;;;;23.00;20.45;;;19.60;99.90;;;;;;4996479;28;20042;-67
2022/06/24 11:48:44;;;;;;;24.20;18.65;;;19.60;99.90;;;;;;4996215;28;20134;-68
2022/06/24 11:51:17;;;;;;;25.17;19.38;;;19.40;99.90;;;;;;4996491;28;20330;-68
2022/06/24 11:54:01;;;;;;;25.33;18.65;;;19.50;99.90;;;;;;4994011;28;20496;-68
2022/06/24 11:56:29;;;;;;;23.52;17.92;;;19.30;99.90;;;;;;4995891;28;20081;-68
2022/06/24 11:58:58;;;;;;;25.08;19.33;;;19.50;99.90;;;;;;4995384;28;20046;-67
2022/06/24 12:01:25;;;;;;;27.20;19.35;;;19.50;99.90;;;;;;4995124;28;20042;-69
2022/06/24 12:03:53;;;;;;;22.60;20.20;;;19.50;99.90;;;;;;5010793;28;20120;-66
2022/06/24 12:06:21;;;;;;;23.50;19.70;;;19.50;99.90;;;;;;5015643;28;20064;-67
2022/06/24 12:08:47;;;;;;;26.63;20.77;;;19.70;99.90;;;;;;5015489;28;20048;-69
2022/06/24 12:11:17;;;;;;;27.80;21.60;;;19.80;99.90;;;;;;5015539;28;20056;-66
2022/06/24 12:14:14;;;;;;;27.42;20.38;;;19.80;99.90;;;;;;5015285;28;20345;-67
2022/06/24 12:17:06;;;;;;;27.98;21.83;;;19.70;99.90;;;;;;5014653;28;20371;-68
2022/06/24 12:19:33;;;;;;;24.60;20.70;;;19.90;99.90;;;;;;5013231;28;20034;-67
2022/06/24 12:22:10;;;;;;;24.48;21.15;;;19.80;99.90;;;;;;5015719;28;20107;-68
2022/06/24 12:24:38;;;;;;;24.27;21.65;;;20.00;99.90;;;;;;5015220;28;20100;-67
2022/06/24 12:27:04;;;;;;;31.23;22.58;;;19.70;99.90;;;;;;5015320;28;20046;-67
2022/06/24 12:29:35;;;;;;;27.20;22.77;;;19.80;99.90;;;;;;5015185;28;20420;-67
2022/06/24 12:32:03;;;;;;;25.67;22.90;;;19.90;99.90;;;;;;5015333;28;20121;-67
2022/06/24 12:34:33;;;;;;;28.55;24.10;;;20.00;99.90;;;;;;5012239;28;20176;-68
2022/06/24 12:37:05;;;;;;;27.67;23.92;;;19.90;99.90;;;;;;5015085;28;20053;-67
2022/06/24 12:39:39;;;;;;;28.25;24.05;;;19.80;99.90;;;;;;5015305;28;20045;-67
2022/06/24 12:42:07;;;;;;;27.95;24.08;;;20.10;99.90;;;;;;5015338;28;20372;-68
2022/06/24 12:44:53;;;;;;;30.95;24.95;;;20.00;99.90;;;;;;5015317;28;20054;-66